Immagine casuale
Testata Regione Lazio ARSIAL SIARL

Ultima Misura Rilevata

Temperatura, Umidità, Pioggia, Pressione Radiazione Solare, Venti, Evapotraspirazione, ecc.
Temperature diurne e notturne Direzione vento Legenda
Prov Stazione Data TMin TMed TMax UMed Pioggia PMed
FR ALATRI Basciano 19/01/2019 2,6 6,3 13,6 80 1 1.010
FR ALVITO Az. Ist. S. Benedetto 19/01/2019 1,4 4,5 10,3 92 0 1.014
FR ANAGNI La Gloria 19/01/2019 1,7 5 10,3 98 0,6 1.023
FR ARPINO Vigne Piane 19/01/2019 3,2 5,4 10,1 93 1,2 1.010
FR BOVILLE ERNICA Sasso 19/01/2019 1,4 5,7 12,3 94 1 1.014
FR ESPERIA Modale 19/01/2019 2 5,2 11,2 97 1 1.009
FR PASTENA Acero 19/01/2019 0,5 4,3 12 96 0,8 1.010
FR PIGLIO Civitella 19/01/2019 1,3 4,8 11 96 0,8 1.016
FR PONTECORVO Melfi di Sotto 19/01/2019 2,4 5,9 10,6 98 1,4 ----
FR S. ELIA FIUMERAPIDO Portella 19/01/2019 3,5 6,2 11,7 98 1,4 1.014
FR S. GIORGIO A LIRI Porto 19/01/2019 1,2 5,8 10,9 99 3,6 1.009
FR SGURGOLA Campo Lungo 19/01/2019 1 5,3 9,5 98 2,4 ----
FR VALLECORSA Serbatoio comunale 19/01/2019 3,3 5,5 10 92 3 1.016
LT APRILIA Le Ferriere 19/01/2019 4,3 7,4 12,6 90 9,4 1.013
LT CISTERNA B.go Carso 19/01/2019 2,2 6,2 11,9 95 2,6 ----
LT CISTERNA Doganella di Ninfa 19/01/2019 3,4 6,9 14,2 91 2,8 1.013
LT CORI Portone 19/01/2019 5 7,4 11,3 86 3 1.016
LT FONDI Capratica 19/01/2019 4,1 7,5 14,7 93 3,4 1.013
LT FORMIA Loc. Gianola 19/01/2019 3,2 7,4 12,6 92 11,8 ----
LT ITRI Valle Quercia 19/01/2019 5,2 7,6 12,7 84 3,2 1.011
LT MAENZA Casacotta 19/01/2019 2,9 6,7 13,3 93 0,4 1.006
LT MINTURNO Pulcherini 19/01/2019 5,7 8,3 12,8 90 7,2 1.014
LT PONTINIA Cotarda 19/01/2019 2 7,4 15,1 90 0,4 1.010
LT SABAUDIA Acquaviva 19/01/2019 4,1 7,6 13,8 89 0,4 1.012
LT SONNINO Frasso 19/01/2019 6,1 8,9 14,7 80 0,8 1.013
RI ACCUMOLI Terracino 19/01/2019 -1 0,8 3,2 87 0,1 1.015
RI BORGOVELINO Ponte Basso 19/01/2019 -0,4 3,4 10,7 95 0,8 1.007
RI CANTALUPO S. Francesco 19/01/2019 1,9 5,8 11,2 80 0 ----
RI CASTEL DI TORA Monte di Tora 19/01/2019 0,8 3,5 10,6 94 1 1.008
RI CASTELNUOVO FARFA C. Spadone 19/01/2019 3,3 6,5 10,9 91 0,4 ----
RI CONFIGNI Portella 19/01/2019 2,9 6 10 82 0 1.017
RI FARA SABINA Canneto 19/01/2019 4 7 11,9 82 0,6 1.010
RI FARA SABINA Sant'Andrea 19/01/2019 4,5 7,4 11,5 82 0,2 ----
RI MONTELEONE S. Prato Camino 19/01/2019 2 4,9 10,8 92 1,4 1.012
RI MONTOPOLI IN SABINA Colle Arcone 19/01/2019 4,7 7 10,6 92 0 ----
RI MONTOPOLI IN SABINA Villa Caprola 19/01/2019 3,9 7,2 12,1 96 0 ----
RI POGGIO CATINO Pastine 19/01/2019 4,4 7,4 10,4 77 0 ----
RI POGGIO NATIVO Casali 19/01/2019 3,7 5,7 9,2 92 0,4 ----
RI RIETI Piana di Rieti 19/01/2019 -0,5 4 10 86 0,4 1.015
RI SCANDRIGLIA Ponticelli 19/01/2019 3,4 5,8 9,7 94 0,6 ----
RM AGOSTA La Cisterna 19/01/2019 1,6 3,8 8,1 99 2,2 1.009
RM BRACCIANO Prato Pianciano 19/01/2019 2,3 5,8 11,9 90 0 1.006
RM CANALE MONTERANO Monte Virginio 19/01/2019 0,5 4,8 10,2 90 2,2 1.008
RM CERVETERI Campo di Mare 19/01/2019 4,8 8 12,3 73 1,1 ----
RM CIVITELLA S.PAOLO Le Cese 19/01/2019 3,7 6,3 11,8 88 0 1.009
RM FIUMICINO Maccarese 19/01/2019 3,4 6,9 13,2 91 5,2 1.012
RM FIUMICINO Testa di Lepre 19/01/2019 4,7 6,9 12,3 86 1,7 ----
RM FORMELLO Perazzeta 19/01/2019 4,6 6,7 10,8 89 4 ----
RM FRASCATI Prata Porci 19/01/2019 3,1 7,6 11,4 83 0,2 1.013
RM GENAZZANO Coop. La Sonnina 19/01/2019 3,4 5,3 8,9 96 4,2 1.014
RM GROTTAFERRATA Valle Marciana 19/01/2019 4,2 6,8 10,3 83 0,6 1.013
RM LICENZA Colle Franco 19/01/2019 1,9 4,2 7,8 92 2,4 1.010
RM MARCELLINA V. Campetella 19/01/2019 4,3 7,3 11,1 87 0,4 ----
RM MARINO Gotto d'Oro 19/01/2019 5,6 7,4 11,7 87 1,4 1.015
RM MONTECOMPATRI Colle Mattia 19/01/2019 3,5 6,9 10,7 83 0,2 1.014
RM MONTECOMPATRI Pantano Borghese 19/01/2019 5 8,1 11,3 83 0 1.009
RM MONTELIBRETTI Bruciati 19/01/2019 2,2 6,5 12,6 89 0,6 ----
RM MONTEPORZIO Camaldoli 19/01/2019 1,7 3,8 6,7 95 0,2 1.015
RM MONTEROTONDO Grotta Marozza 19/01/2019 2,5 6,5 10,9 88 0 1.013
RM PALOMBARA Fonte Grande 19/01/2019 1,6 6,2 11,3 79 0,2 ----
RM ROMA Capocotta 19/01/2019 N.D. N.D. N.D. N.D. N.D. ----
RM ROMA Ponte di Nona 19/01/2019 5,8 8 11,4 90 0,2 1.015
RM ROMA Via Lanciani 38 19/01/2019 6,5 8,4 11,9 87 0,3 1.012
RM S. GREGORIO C. Faustiniano 19/01/2019 4 6 10,7 85 0,4 1.010
RM VELLETRI Cantina Sperimentale 19/01/2019 2,5 5,6 12,2 92 0,6 1.008
RM VELLETRI Prato Lungo 19/01/2019 3,9 6,5 10,7 87 2,4 ----
RM ZAGAROLO Santa Apollara 19/01/2019 3,3 5,9 9,6 95 1,4 ----
VT ACQUAPENDENTE Falconiera 19/01/2019 -1,3 2,8 8,5 94 0 1.009
VT BAGNOREGIO Castell Cellesi 19/01/2019 2,6 5 7,8 91 0 ----
VT BASSANO R. Piano Mola 19/01/2019 1 4,1 9,5 95 1,2 1.008
VT BLERA Puntoni 19/01/2019 3,8 5,7 10,4 88 9,6 1.012
VT BOLSENA Capone 19/01/2019 2,7 6,4 12,7 80 1,4 1.006
VT BOLSENA Rentica 19/01/2019 1,3 5,5 9,7 83 0,2 ----
VT CANINO Diga Timone 19/01/2019 1,9 5,3 12,4 91 0,6 1.010
VT CANINO Pianacce 19/01/2019 3,5 7,1 11,7 79 0,2 1.013
VT CANINO San Valeriano 19/01/2019 4,4 6,6 10,9 82 0 ----
VT CELLENO Acquaforte 19/01/2019 2,1 4,8 8,8 97 0 ----
VT CORCHIANO Pantalone 19/01/2019 -1,3 4,4 12,1 93 1 1.009
VT FARNESE Gressa 19/01/2019 2 5,2 10 74 0 ----
VT FARNESE Pian di Sala 19/01/2019 -1,6 2,6 9,4 94 1,5 ----
VT GROTTE DI CASTRO Borghetto 19/01/2019 0,6 4,3 10,1 91 0,8 1.014
VT GROTTE DI CASTRO Purgatorio 19/01/2019 -1,2 2,7 10,4 94 0,6 1.015
VT LATERA Centro Florovivaistico 19/01/2019 -0,3 4 11,1 91 0,2 1.010
VT MONTALTO Le Murelle 19/01/2019 5,1 7,5 11,9 83 4 1.013
VT MONTALTO Pescia Romana 19/01/2019 5,6 7,8 11,6 80 0 1.012
VT MONTEFIASCONE Commenda 19/01/2019 3,3 5,8 10,2 90 0,1 ----
VT RONCIGLIONE Ponterotto 19/01/2019 -0,3 4 10 91 0 ----
VT SORIANO CIMINO Pantane 19/01/2019 -1,1 4,8 11,6 92 1,6 1.008
VT SORIANO CIMINO Poggio di Chia 19/01/2019 -0,8 4,3 10,2 94 1 ----
VT TARQUINIA Portaccia 19/01/2019 5,6 8,1 12,6 83 0 ----
VT TUSCANIA Montebello 19/01/2019 3,7 6,2 9,5 85 0,2 ----
VT VETRALLA Marchionato 19/01/2019 3,7 6 10,7 94 1,6 ----
VT VITERBO Pisello 19/01/2019 3,1 5,6 9,7 89 0 ----
N.D. = Dati Non Disponibili
---- = Sensore non presente

Le misure esposte sono grezze, ovvero non sono state validate